NCAR-RAP Real-Time Weather Data

Output produced by METARs form (23 June 2018  19:36 UTC)
found at http://weather.rap.ucar.edu/surface/
 
RJSN 231200Z 26005KT 220V280 CAVOK 21/18 Q1003
RJSN 231100Z 28002KT 9999 FEW080 BKN150 21/16 Q1002
RJSN 231000Z 32003KT 290V360 9999 FEW060 BKN150 22/18 Q1002
RJSN 230900Z 33002KT 9999 FEW060 BKN150 22/18 Q1001
RJSN 230800Z 05005KT 010V070 9999 SCT070 BKN150 22/19 Q1001
RJSN 230700Z 35004KT 290V020 9999 FEW070 BKN150 BKN/// 22/19 Q1002
RJSN 230600Z 36009KT CAVOK 24/18 Q1002
RJSN 230500Z 01007KT CAVOK 26/17 Q1002
RJSN 230400Z 36005KT CAVOK 25/16 Q1003
RJSN 230300Z 36005KT CAVOK 24/17 Q1003
RJSN 230200Z 04005KT CAVOK 24/16 Q1005
RJSN 230100Z 09005KT CAVOK 26/13 Q1005
RJSN 230000Z 13005KT 080V170 CAVOK 25/13 Q1006
RJSN 222300Z 17007KT CAVOK 22/11 Q1007
RJSN 222200Z 16004KT CAVOK 20/12 Q1008
RJSN 222110Z 16005KT CAVOK 19/11 Q1008 RMK A2977
RJSN 221200Z 19003KT 150V220 CAVOK 22/10 Q1009
RJSN 221100Z 21005KT CAVOK 23/11 Q1009
RJSN 221000Z 25007KT CAVOK 22/13 Q1008
RJSN 220900Z 25010KT 9999 FEW040 24/11 Q1008
RJSN 220800Z 24012KT 9999 FEW040 24/11 Q1008
RJSN 220700Z 26014KT 9999 FEW040 25/11 Q1008
RJSN 220600Z 24012KT 9999 FEW040 SCT/// 26/10 Q1008
RJSN 220500Z 24014KT 9999 FEW040 25/08 Q1008
RJSN 220400Z 24016KT 9999 FEW040 25/10 Q1008
RJSN 220300Z 25015KT 9999 FEW040 SCT/// 25/12 Q1009
RJSN 220200Z 25015KT 9999 FEW030 24/12 Q1009
RJSN 220100Z 21012KT 170V250 9999 FEW030 25/13 Q1009
RJSN 220000Z 21007KT 160V250 9999 FEW030 23/13 Q1008
RJSN 212300Z 21009KT 9999 FEW020 21/15 Q1009
RJSN 212200Z 19009KT 9999 FEW020 SCT/// 20/15 Q1009
RJSN 212110Z 19007KT 9999 FEW015 SCT025 19/16 Q1009 RMK 1CU015 3CU025 A2981
RJSN 211200Z 25009KT 9999 FEW015 SCT070 21/16 Q1006
RJSN 211100Z 24010KT 9999 FEW015 SCT030 BKN040 21/18 Q1005
RJSN 211000Z 23012KT 9999 FEW015 SCT040 22/18 Q1004
RJSN 210900Z 24012KT 9999 FEW020 BKN030 BKN/// 23/17 Q1003
RJSN 210800Z 25014KT 9999 FEW030 SCT100 BKN/// 23/17 Q1003